createdAt,value
2022-10-17T00:13:19.856Z,11.61
2022-10-17T00:33:19.834Z,11.51
2022-10-17T00:53:19.809Z,11.48
2022-10-17T01:13:19.813Z,11.39
2022-10-17T01:33:19.796Z,11.39
2022-10-17T01:53:19.710Z,11.22
2022-10-17T02:13:19.754Z,10.81
2022-10-17T02:33:19.803Z,10.91
2022-10-17T02:53:19.721Z,10.74
2022-10-17T03:13:19.692Z,10.70
2022-10-17T03:33:19.610Z,10.37
2022-10-17T03:53:19.653Z,10.05
2022-10-17T04:13:19.648Z,10.12
2022-10-17T04:33:19.572Z,10.08
2022-10-17T04:53:19.589Z,9.90
2022-10-17T05:13:19.704Z,9.56
2022-10-17T05:33:19.615Z,9.62
2022-10-17T05:53:19.636Z,9.75
2022-10-17T06:13:19.570Z,9.56
2022-10-17T06:33:19.503Z,9.75
2022-10-17T06:53:19.607Z,10.01
2022-10-17T07:13:19.614Z,10.56
2022-10-17T07:33:19.448Z,11.02
2022-10-17T07:53:19.550Z,11.49
2022-10-17T08:13:19.550Z,11.81
2022-10-17T08:33:19.506Z,12.17
2022-10-17T08:53:19.431Z,12.70
2022-10-17T09:13:19.363Z,13.16
2022-10-17T09:33:19.379Z,14.12
2022-10-17T09:53:19.445Z,14.99
2022-10-17T10:13:19.480Z,15.74
2022-10-17T10:33:19.482Z,16.02
2022-10-17T10:53:19.394Z,16.36
2022-10-17T11:13:19.439Z,18.19
2022-10-17T11:33:19.375Z,19.94
2022-10-17T11:53:19.376Z,20.56
2022-10-17T12:13:19.299Z,20.63
2022-10-17T12:33:19.178Z,20.94
2022-10-17T12:53:19.259Z,21.54
2022-10-17T13:13:19.053Z,22.57
2022-10-17T13:33:19.207Z,23.33
2022-10-17T13:53:19.011Z,22.88
2022-10-17T14:13:19.105Z,22.91
2022-10-17T14:33:18.989Z,22.43
2022-10-17T14:53:18.923Z,21.76
2022-10-17T15:13:18.957Z,21.98
2022-10-17T15:33:18.892Z,21.24
2022-10-17T15:53:18.819Z,19.82
2022-10-17T16:13:18.853Z,18.59
2022-10-17T16:33:18.779Z,17.59
2022-10-17T16:53:18.809Z,16.55
2022-10-17T17:13:18.739Z,15.97
2022-10-17T17:33:18.761Z,15.39
2022-10-17T17:53:18.692Z,14.83
2022-10-17T18:13:18.716Z,14.55
2022-10-17T18:33:18.635Z,14.16
2022-10-17T18:53:18.666Z,13.91
2022-10-17T19:13:18.693Z,13.61
2022-10-17T19:33:18.706Z,13.34
2022-10-17T19:53:18.636Z,13.16
2022-10-17T20:13:18.564Z,13.26
2022-10-17T20:33:18.593Z,12.87
2022-10-17T20:53:18.596Z,12.68
2022-10-17T21:13:18.516Z,12.59
2022-10-17T21:33:18.547Z,12.69
2022-10-17T21:53:18.466Z,12.42
2022-10-17T22:13:18.482Z,12.37
2022-10-17T22:33:18.508Z,12.09
2022-10-17T22:53:18.425Z,12.15
2022-10-17T23:13:18.469Z,12.25
2022-10-17T23:33:18.465Z,11.74
2022-10-17T23:53:18.389Z,11.63
